Edinburg, Pennsylvania
Current Conditions -  °F | °C
As of 12:47 PM on Friday 21 Nov 2014 (Local Time) from KBVI Reporting Station
Overcast Overcast  
Wind Chill: -8°   Ceiling: 3600
Heat Index: -4°   Visibility: 10mi
Dew Point: -13°   Wind: 6mph
Humidity: 50%   Direction: 320°NW
Pressure: 30.44"   Gusts: NA
Location:  41.01°N, 80.44°W
Report Text: KBVI 211747Z 32005KT 10SM OVC036 M04/M13 A3044
Loading
Personal Weather Stations






























Interactive Weather Map New forecast layout! Learn more

10-Day Weather Forecast

Advertisements
Track Severe Weather on mobile